PWSweather.com
Personal Weather Stations
Station Observations
SYLVANIAWX
Erie St. Near Centennial Rd., Sylvania, OH 43560

Erie St. Near Centennial Rd.Sylvania, OH 43560

Lat: 41.7172065, Lon: -83.7420078

Elevation: 672

Station Type: Davis Vantage Pro2

http://www.sylvaniaweather.com

High Low Average
Temperature 52.7°F11.5°C 34.4°F1.3°C 46.9°F8.3°C
Dew Point 49.6°F9.8°C 28.6°F-1.9°C 44.0°F6.7°C
Winds 28.0 mph 45.1 kmh Calm Calm 6.0 mph SW9.7 kmh SW
Wind Gusts 37.0 mph59.5 kmh -- 11.0 mph17.7 kmh
Humidity 94% 78% 90%
Pressure 29.79 in1008.8 mb 29.37 in994.6 mb -
Precipitation 0.05 in1.3 mm - -
Hour Temp Dew Point Humidity Winds Wind Gusts Pressure Precip Precip Rate Daily Precip Total
12:00 AM 45.0°F7.2°C 42.3°F5.7°C 90% 3.0 mph S4.8 kmh S 7.0 mph11.3 kmh 29.81 in1009.5 mb 0.00 in0.0 mm 0.00 in/hr0.0 mm/hr 0.00 in0.0 mm
12:05 AM 45.0°F7.2°C 42.3°F5.7°C 90% 3.0 mph SSW4.8 kmh SSW 10.0 mph16.1 kmh 29.81 in1009.5 mb 0.00 in0.0 mm 0.00 in/hr0.0 mm/hr 0.00 in0.0 mm
12:10 AM 45.0°F7.2°C 42.3°F5.7°C 90% 5.0 mph SSW8.0 kmh SSW 9.0 mph14.5 kmh 29.80 in1009.1 mb 0.00 in0.0 mm 0.00 in/hr0.0 mm/hr 0.00 in0.0 mm
12:15 AM 45.0°F7.2°C 42.3°F5.7°C 90% 2.0 mph SSW3.2 kmh SSW 11.0 mph17.7 kmh 29.80 in1009.1 mb 0.00 in0.0 mm 0.00 in/hr0.0 mm/hr 0.00 in0.0 mm
12:20 AM 45.0°F7.2°C 42.3°F5.7°C 90% 1.0 mph S1.6 kmh S 6.0 mph9.7 kmh 29.80 in1009.1 mb 0.01 in0.3 mm 0.12 in/hr3.0 mm/hr 0.01 in0.3 mm
12:25 AM 44.9°F7.2°C 42.2°F5.7°C 90% 4.0 mph SSW6.4 kmh SSW 7.0 mph11.3 kmh 29.80 in1009.1 mb 0.02 in0.5 mm 0.12 in/hr3.0 mm/hr 0.02 in0.5 mm
12:30 AM 44.9°F7.2°C 42.4°F5.8°C 91% 1.0 mph SSE1.6 kmh SSE 3.0 mph4.8 kmh 29.80 in1009.1 mb 0.04 in1.0 mm 0.24 in/hr6.1 mm/hr 0.04 in1.0 mm
12:40 AM 44.7°F7.1°C 42.2°F5.7°C 91% 2.0 mph SSW3.2 kmh SSW 2.0 mph3.2 kmh 29.78 in1008.5 mb 0.05 in1.3 mm 0.06 in/hr1.5 mm/hr 0.05 in1.3 mm
12:45 AM 44.6°F7.0°C 42.1°F5.6°C 91% 4.0 mph SW6.4 kmh SW 5.0 mph8.0 kmh 29.78 in1008.5 mb 0.05 in1.3 mm 0.00 in/hr0.0 mm/hr 0.05 in1.3 mm
12:50 AM 44.5°F6.9°C 42.0°F5.6°C 91% 3.0 mph S4.8 kmh S 3.0 mph4.8 kmh 29.78 in1008.5 mb 0.05 in1.3 mm 0.00 in/hr0.0 mm/hr 0.05 in1.3 mm
12:55 AM 44.4°F6.9°C 41.9°F5.5°C 91% 3.0 mph SW4.8 kmh SW 5.0 mph8.0 kmh 29.78 in1008.5 mb 0.05 in1.3 mm 0.00 in/hr0.0 mm/hr 0.05 in1.3 mm
01:00 AM 44.3°F6.8°C 42.1°F5.6°C 92% 1.0 mph SW1.6 kmh SW 4.0 mph6.4 kmh 29.78 in1008.5 mb 0.05 in1.3 mm 0.00 in/hr0.0 mm/hr 0.05 in1.3 mm
01:05 AM 44.3°F6.8°C 42.1°F5.6°C 92% Calm Calm 4.0 mph6.4 kmh 29.78 in1008.5 mb 0.05 in1.3 mm 0.00 in/hr0.0 mm/hr 0.05 in1.3 mm
01:09 AM 44.2°F6.8°C 42.0°F5.6°C 92% Calm Calm 4.0 mph6.4 kmh 29.78 in1008.5 mb 0.05 in1.3 mm 0.00 in/hr0.0 mm/hr 0.05 in1.3 mm
01:15 AM 44.1°F6.7°C 41.9°F5.5°C 92% Calm Calm 1.0 mph1.6 kmh 29.78 in1008.5 mb 0.05 in1.3 mm 0.00 in/hr0.0 mm/hr 0.05 in1.3 mm
01:20 AM 44.1°F6.7°C 41.9°F5.5°C 92% Calm Calm -- 29.78 in1008.5 mb 0.04 in1.0 mm 0.00 in/hr0.0 mm/hr 0.05 in1.3 mm
01:25 AM 44.0°F6.7°C 41.8°F5.4°C 92% Calm Calm -- 29.79 in1008.8 mb 0.04 in1.0 mm 0.00 in/hr0.0 mm/hr 0.05 in1.3 mm
01:30 AM 44.0°F6.7°C 41.8°F5.4°C 92% Calm Calm -- 29.78 in1008.5 mb 0.02 in0.5 mm 0.00 in/hr0.0 mm/hr 0.05 in1.3 mm
01:35 AM 43.9°F6.6°C 41.7°F5.4°C 92% Calm Calm -- 29.77 in1008.1 mb 0.02 in0.5 mm 0.00 in/hr0.0 mm/hr 0.05 in1.3 mm
01:40 AM 43.7°F6.5°C 41.5°F5.3°C 92% Calm Calm -- 29.77 in1008.1 mb 0.00 in0.0 mm 0.00 in/hr0.0 mm/hr 0.05 in1.3 mm
01:45 AM 43.6°F6.4°C 41.4°F5.2°C 92% Calm Calm 2.0 mph3.2 kmh 29.77 in1008.1 mb 0.00 in0.0 mm 0.00 in/hr0.0 mm/hr 0.05 in1.3 mm
01:50 AM 43.6°F6.4°C 41.4°F5.2°C 92% Calm Calm -- 29.76 in1007.8 mb 0.00 in0.0 mm 0.00 in/hr0.0 mm/hr 0.05 in1.3 mm
01:55 AM 43.6°F6.4°C 41.4°F5.2°C 92% Calm Calm 1.0 mph1.6 kmh 29.76 in1007.8 mb 0.00 in0.0 mm 0.00 in/hr0.0 mm/hr 0.05 in1.3 mm
02:00 AM 43.6°F6.4°C 41.4°F5.2°C 92% Calm Calm 2.0 mph3.2 kmh 29.76 in1007.8 mb 0.00 in0.0 mm 0.00 in/hr0.0 mm/hr 0.05 in1.3 mm
02:05 AM 43.6°F6.4°C 41.4°F5.2°C 92% Calm Calm 2.0 mph3.2 kmh 29.75 in1007.5 mb 0.00 in0.0 mm 0.00 in/hr0.0 mm/hr 0.05 in1.3 mm
02:10 AM 43.7°F6.5°C 41.5°F5.3°C 92% Calm Calm -- 29.75 in1007.5 mb 0.00 in0.0 mm 0.00 in/hr0.0 mm/hr 0.05 in1.3 mm
02:15 AM 44.0°F6.7°C 42.1°F5.6°C 93% 1.0 mph S1.6 kmh S 9.0 mph14.5 kmh 29.74 in1007.1 mb 0.00 in0.0 mm 0.00 in/hr0.0 mm/hr 0.05 in1.3 mm
02:20 AM 44.5°F6.9°C 42.6°F5.9°C 93% 1.0 mph S1.6 kmh S 4.0 mph6.4 kmh 29.74 in1007.1 mb 0.00 in0.0 mm 0.00 in/hr0.0 mm/hr 0.05 in1.3 mm
02:25 AM 45.1°F7.3°C 43.2°F6.2°C 93% Calm Calm 5.0 mph8.0 kmh 29.74 in1007.1 mb 0.00 in0.0 mm 0.00 in/hr0.0 mm/hr 0.05 in1.3 mm
02:30 AM 45.9°F7.7°C 44.0°F6.7°C 93% 5.0 mph SSW8.0 kmh SSW 5.0 mph8.0 kmh 29.73 in1006.8 mb 0.00 in0.0 mm 0.00 in/hr0.0 mm/hr 0.05 in1.3 mm
02:35 AM 46.5°F8.1°C 44.9°F7.2°C 94% 10.0 mph SSW16.1 kmh SSW 13.0 mph20.9 kmh 29.73 in1006.8 mb 0.00 in0.0 mm 0.00 in/hr0.0 mm/hr 0.05 in1.3 mm
02:40 AM 46.9°F8.3°C 45.3°F7.4°C 94% 4.0 mph SSW6.4 kmh SSW 9.0 mph14.5 kmh 29.73 in1006.8 mb 0.00 in0.0 mm 0.00 in/hr0.0 mm/hr 0.05 in1.3 mm
02:45 AM 47.2°F8.4°C 45.3°F7.4°C 93% 9.0 mph SSW14.5 kmh SSW 11.0 mph17.7 kmh 29.73 in1006.8 mb 0.00 in0.0 mm 0.00 in/hr0.0 mm/hr 0.05 in1.3 mm
02:50 AM 47.5°F8.6°C 45.9°F7.7°C 94% 4.0 mph S6.4 kmh S 10.0 mph16.1 kmh 29.72 in1006.4 mb 0.00 in0.0 mm 0.00 in/hr0.0 mm/hr 0.05 in1.3 mm
02:55 AM 47.6°F8.7°C 46.0°F7.8°C 94% 5.0 mph SSW8.0 kmh SSW 16.0 mph25.7 kmh 29.71 in1006.1 mb 0.00 in0.0 mm 0.00 in/hr0.0 mm/hr 0.05 in1.3 mm
03:00 AM 47.8°F8.8°C 45.9°F7.7°C 93% 4.0 mph SSW6.4 kmh SSW 7.0 mph11.3 kmh 29.71 in1006.1 mb 0.00 in0.0 mm 0.00 in/hr0.0 mm/hr 0.05 in1.3 mm
03:05 AM 47.9°F8.8°C 46.3°F7.9°C 94% 2.0 mph SW3.2 kmh SW 12.0 mph19.3 kmh 29.71 in1006.1 mb 0.00 in0.0 mm 0.00 in/hr0.0 mm/hr 0.05 in1.3 mm
03:10 AM 48.0°F8.9°C 46.4°F8.0°C 94% 4.0 mph S6.4 kmh S 9.0 mph14.5 kmh 29.70 in1005.8 mb 0.00 in0.0 mm 0.00 in/hr0.0 mm/hr 0.05 in1.3 mm
03:15 AM 48.1°F8.9°C 46.5°F8.1°C 94% 10.0 mph SSW16.1 kmh SSW 11.0 mph17.7 kmh 29.70 in1005.8 mb 0.00 in0.0 mm 0.00 in/hr0.0 mm/hr 0.05 in1.3 mm
03:20 AM 48.2°F9.0°C 46.6°F8.1°C 94% 5.0 mph S8.0 kmh S 5.0 mph8.0 kmh 29.70 in1005.8 mb 0.00 in0.0 mm 0.00 in/hr0.0 mm/hr 0.05 in1.3 mm
03:25 AM 48.3°F9.1°C 46.7°F8.2°C 94% 5.0 mph S8.0 kmh S 14.0 mph22.5 kmh 29.70 in1005.8 mb 0.00 in0.0 mm 0.00 in/hr0.0 mm/hr 0.05 in1.3 mm
03:30 AM 48.3°F9.1°C 46.7°F8.2°C 94% 5.0 mph SW8.0 kmh SW 10.0 mph16.1 kmh 29.69 in1005.4 mb 0.00 in0.0 mm 0.00 in/hr0.0 mm/hr 0.05 in1.3 mm
03:35 AM 48.5°F9.2°C 46.6°F8.1°C 93% 3.0 mph SSW4.8 kmh SSW 10.0 mph16.1 kmh 29.70 in1005.8 mb 0.00 in0.0 mm 0.00 in/hr0.0 mm/hr 0.05 in1.3 mm
03:40 AM 48.5°F9.2°C 46.6°F8.1°C 93% 4.0 mph S6.4 kmh S 7.0 mph11.3 kmh 29.70 in1005.8 mb 0.00 in0.0 mm 0.00 in/hr0.0 mm/hr 0.05 in1.3 mm
03:45 AM 48.6°F9.2°C 46.7°F8.2°C 93% 9.0 mph SW14.5 kmh SW 11.0 mph17.7 kmh 29.69 in1005.4 mb 0.00 in0.0 mm 0.00 in/hr0.0 mm/hr 0.05 in1.3 mm
03:50 AM 48.6°F9.2°C 47.0°F8.3°C 94% 4.0 mph SW6.4 kmh SW 6.0 mph9.7 kmh 29.69 in1005.4 mb 0.00 in0.0 mm 0.00 in/hr0.0 mm/hr 0.05 in1.3 mm
03:55 AM 48.7°F9.3°C 47.1°F8.4°C 94% 2.0 mph S3.2 kmh S 13.0 mph20.9 kmh 29.69 in1005.4 mb 0.00 in0.0 mm 0.00 in/hr0.0 mm/hr 0.05 in1.3 mm
04:00 AM 48.7°F9.3°C 47.1°F8.4°C 94% 4.0 mph S6.4 kmh S 5.0 mph8.0 kmh 29.69 in1005.4 mb 0.00 in0.0 mm 0.00 in/hr0.0 mm/hr 0.05 in1.3 mm
04:05 AM 48.8°F9.3°C 46.9°F8.3°C 93% 1.0 mph SW1.6 kmh SW 7.0 mph11.3 kmh 29.69 in1005.4 mb 0.00 in0.0 mm 0.00 in/hr0.0 mm/hr 0.05 in1.3 mm
04:10 AM 48.9°F9.4°C 47.0°F8.3°C 93% Calm Calm 6.0 mph9.7 kmh 29.69 in1005.4 mb 0.00 in0.0 mm 0.00 in/hr0.0 mm/hr 0.05 in1.3 mm
04:15 AM 49.0°F9.4°C 47.1°F8.4°C 93% 3.0 mph S4.8 kmh S 9.0 mph14.5 kmh 29.68 in1005.1 mb 0.00 in0.0 mm 0.00 in/hr0.0 mm/hr 0.05 in1.3 mm
04:20 AM 49.1°F9.5°C 47.5°F8.6°C 94% 4.0 mph SSW6.4 kmh SSW 5.0 mph8.0 kmh 29.68 in1005.1 mb 0.01 in0.3 mm 0.12 in/hr3.0 mm/hr 0.06 in1.5 mm
04:25 AM 49.2°F9.6°C 47.6°F8.7°C 94% 4.0 mph SW6.4 kmh SW 11.0 mph17.7 kmh 29.68 in1005.1 mb 0.01 in0.3 mm 0.00 in/hr0.0 mm/hr 0.06 in1.5 mm
04:30 AM 49.2°F9.6°C 47.6°F8.7°C 94% 6.0 mph SW9.7 kmh SW 6.0 mph9.7 kmh 29.68 in1005.1 mb 0.01 in0.3 mm 0.00 in/hr0.0 mm/hr 0.06 in1.5 mm
04:35 AM 49.2°F9.6°C 47.6°F8.7°C 94% 3.0 mph SSW4.8 kmh SSW 7.0 mph11.3 kmh 29.67 in1004.7 mb 0.01 in0.3 mm 0.00 in/hr0.0 mm/hr 0.06 in1.5 mm
04:40 AM 49.3°F9.6°C 47.7°F8.7°C 94% 3.0 mph SW4.8 kmh SW 3.0 mph4.8 kmh 29.67 in1004.7 mb 0.01 in0.3 mm 0.00 in/hr0.0 mm/hr 0.06 in1.5 mm
04:45 AM 49.4°F9.7°C 47.8°F8.8°C 94% 3.0 mph SW4.8 kmh SW 6.0 mph9.7 kmh 29.66 in1004.4 mb 0.01 in0.3 mm 0.00 in/hr0.0 mm/hr 0.06 in1.5 mm
04:50 AM 49.6°F9.8°C 47.7°F8.7°C 93% 5.0 mph SW8.0 kmh SW 5.0 mph8.0 kmh 29.65 in1004.1 mb 0.01 in0.3 mm 0.00 in/hr0.0 mm/hr 0.06 in1.5 mm
04:55 AM 49.7°F9.8°C 47.8°F8.8°C 93% Calm Calm 13.0 mph20.9 kmh 29.65 in1004.1 mb 0.01 in0.3 mm 0.00 in/hr0.0 mm/hr 0.06 in1.5 mm
05:00 AM 49.8°F9.9°C 48.2°F9.0°C 94% 3.0 mph SW4.8 kmh SW 4.0 mph6.4 kmh 29.65 in1004.1 mb 0.01 in0.3 mm 0.00 in/hr0.0 mm/hr 0.06 in1.5 mm
05:05 AM 49.9°F9.9°C 48.3°F9.1°C 94% 6.0 mph SSW9.7 kmh SSW 11.0 mph17.7 kmh 29.65 in1004.1 mb 0.01 in0.3 mm 0.00 in/hr0.0 mm/hr 0.06 in1.5 mm
05:10 AM 49.9°F9.9°C 48.3°F9.1°C 94% 2.0 mph SW3.2 kmh SW 3.0 mph4.8 kmh 29.65 in1004.1 mb 0.01 in0.3 mm 0.00 in/hr0.0 mm/hr 0.06 in1.5 mm
05:15 AM 49.8°F9.9°C 47.9°F8.8°C 93% Calm Calm 6.0 mph9.7 kmh 29.65 in1004.1 mb 0.01 in0.3 mm 0.00 in/hr0.0 mm/hr 0.06 in1.5 mm
05:20 AM 49.7°F9.8°C 47.8°F8.8°C 93% 3.0 mph S4.8 kmh S 3.0 mph4.8 kmh 29.65 in1004.1 mb 0.00 in0.0 mm 0.00 in/hr0.0 mm/hr 0.06 in1.5 mm
05:25 AM 49.8°F9.9°C 47.9°F8.8°C 93% 3.0 mph SW4.8 kmh SW 9.0 mph14.5 kmh 29.64 in1003.7 mb 0.00 in0.0 mm 0.00 in/hr0.0 mm/hr 0.06 in1.5 mm
05:30 AM 49.7°F9.8°C 47.8°F8.8°C 93% 3.0 mph SSW4.8 kmh SSW 4.0 mph6.4 kmh 29.63 in1003.4 mb 0.00 in0.0 mm 0.00 in/hr0.0 mm/hr 0.06 in1.5 mm
05:35 AM 49.6°F9.8°C 47.7°F8.7°C 93% 2.0 mph SSW3.2 kmh SSW 6.0 mph9.7 kmh 29.63 in1003.4 mb 0.00 in0.0 mm 0.00 in/hr0.0 mm/hr 0.06 in1.5 mm
05:40 AM 49.6°F9.8°C 47.7°F8.7°C 93% 4.0 mph SSW6.4 kmh SSW 4.0 mph6.4 kmh 29.63 in1003.4 mb 0.00 in0.0 mm 0.00 in/hr0.0 mm/hr 0.06 in1.5 mm
05:45 AM 49.6°F9.8°C 47.7°F8.7°C 93% Calm Calm 4.0 mph6.4 kmh 29.63 in1003.4 mb 0.01 in0.3 mm 0.12 in/hr3.0 mm/hr 0.07 in1.8 mm
05:50 AM 49.5°F9.7°C 47.6°F8.7°C 93% 4.0 mph S6.4 kmh S 4.0 mph6.4 kmh 29.63 in1003.4 mb 0.01 in0.3 mm 0.00 in/hr0.0 mm/hr 0.07 in1.8 mm
05:55 AM 49.4°F9.7°C 47.5°F8.6°C 93% 3.0 mph SSW4.8 kmh SSW 7.0 mph11.3 kmh 29.63 in1003.4 mb 0.01 in0.3 mm 0.00 in/hr0.0 mm/hr 0.07 in1.8 mm
06:00 AM 49.3°F9.6°C 47.4°F8.6°C 93% 5.0 mph SW8.0 kmh SW 5.0 mph8.0 kmh 29.62 in1003.0 mb 0.01 in0.3 mm 0.00 in/hr0.0 mm/hr 0.07 in1.8 mm
06:05 AM 49.2°F9.6°C 47.3°F8.5°C 93% Calm Calm 5.0 mph8.0 kmh 29.61 in1002.7 mb 0.02 in0.5 mm 0.12 in/hr3.0 mm/hr 0.08 in2.0 mm
06:10 AM 49.2°F9.6°C 47.3°F8.5°C 93% Calm Calm -- 29.61 in1002.7 mb 0.03 in0.8 mm 0.12 in/hr3.0 mm/hr 0.09 in2.3 mm
06:15 AM 49.0°F9.4°C 47.1°F8.4°C 93% Calm Calm 3.0 mph4.8 kmh 29.61 in1002.7 mb 0.03 in0.8 mm 0.00 in/hr0.0 mm/hr 0.09 in2.3 mm
06:20 AM 48.9°F9.4°C 47.0°F8.3°C 93% 1.0 mph S1.6 kmh S 1.0 mph1.6 kmh 29.61 in1002.7 mb 0.04 in1.0 mm 0.12 in/hr3.0 mm/hr 0.10 in2.5 mm
06:25 AM 49.0°F9.4°C 47.1°F8.4°C 93% Calm Calm 5.0 mph8.0 kmh 29.60 in1002.4 mb 0.04 in1.0 mm 0.00 in/hr0.0 mm/hr 0.10 in2.5 mm
06:30 AM 49.0°F9.4°C 47.1°F8.4°C 93% Calm Calm -- 29.60 in1002.4 mb 0.05 in1.3 mm 0.12 in/hr3.0 mm/hr 0.11 in2.8 mm
06:35 AM 48.9°F9.4°C 47.0°F8.3°C 93% 1.0 mph SW1.6 kmh SW 4.0 mph6.4 kmh 29.60 in1002.4 mb 0.06 in1.5 mm 0.12 in/hr3.0 mm/hr 0.12 in3.0 mm
06:40 AM 48.8°F9.3°C 46.9°F8.3°C 93% 2.0 mph S3.2 kmh S 3.0 mph4.8 kmh 29.59 in1002.0 mb 0.07 in1.8 mm 0.12 in/hr3.0 mm/hr 0.13 in3.3 mm
06:45 AM 48.8°F9.3°C 46.9°F8.3°C 93% Calm Calm 5.0 mph8.0 kmh 29.59 in1002.0 mb 0.08 in2.0 mm 0.12 in/hr3.0 mm/hr 0.14 in3.6 mm
06:50 AM 48.8°F9.3°C 46.9°F8.3°C 93% Calm Calm 4.0 mph6.4 kmh 29.59 in1002.0 mb 0.08 in2.0 mm 0.00 in/hr0.0 mm/hr 0.14 in3.6 mm
06:55 AM 48.8°F9.3°C 46.9°F8.3°C 93% Calm Calm 6.0 mph9.7 kmh 29.59 in1002.0 mb 0.09 in2.3 mm 0.12 in/hr3.0 mm/hr 0.15 in3.8 mm
07:00 AM 48.8°F9.3°C 46.9°F8.3°C 93% Calm Calm 2.0 mph3.2 kmh 29.59 in1002.0 mb 0.10 in2.5 mm 0.01 in/hr0.3 mm/hr 0.16 in4.1 mm
07:05 AM 48.8°F9.3°C 46.9°F8.3°C 93% 2.0 mph SSW3.2 kmh SSW 8.0 mph12.9 kmh 29.60 in1002.4 mb 0.12 in3.0 mm 0.24 in/hr6.1 mm/hr 0.18 in4.6 mm
07:10 AM 48.8°F9.3°C 47.2°F8.4°C 94% 3.0 mph SW4.8 kmh SW 8.0 mph12.9 kmh 29.59 in1002.0 mb 0.12 in3.0 mm 0.00 in/hr0.0 mm/hr 0.18 in4.6 mm
07:20 AM 49.1°F9.5°C 47.5°F8.6°C 94% 4.0 mph SSE6.4 kmh SSE 14.0 mph22.5 kmh 29.58 in1001.7 mb 0.15 in3.8 mm 0.18 in/hr4.6 mm/hr 0.21 in5.3 mm
07:25 AM 49.3°F9.6°C 47.7°F8.7°C 94% 1.0 mph S1.6 kmh S 14.0 mph22.5 kmh 29.58 in1001.7 mb 0.17 in4.3 mm 0.24 in/hr6.1 mm/hr 0.23 in5.8 mm
07:30 AM 49.4°F9.7°C 47.8°F8.8°C 94% 1.0 mph WSW1.6 kmh WSW 7.0 mph11.3 kmh 29.58 in1001.7 mb 0.18 in4.6 mm 0.12 in/hr3.0 mm/hr 0.24 in6.1 mm
07:35 AM 49.6°F9.8°C 48.0°F8.9°C 94% 2.0 mph S3.2 kmh S 12.0 mph19.3 kmh 29.58 in1001.7 mb 0.20 in5.1 mm 0.24 in/hr6.1 mm/hr 0.26 in6.6 mm
07:40 AM 49.5°F9.7°C 47.9°F8.8°C 94% Calm Calm 3.0 mph4.8 kmh 29.57 in1001.4 mb 0.20 in5.1 mm 0.00 in/hr0.0 mm/hr 0.26 in6.6 mm
07:45 AM 49.5°F9.7°C 47.9°F8.8°C 94% Calm Calm 4.0 mph6.4 kmh 29.55 in1000.7 mb 0.22 in5.6 mm 0.24 in/hr6.1 mm/hr 0.28 in7.1 mm
07:50 AM 49.4°F9.7°C 47.8°F8.8°C 94% Calm Calm 2.0 mph3.2 kmh 29.55 in1000.7 mb 0.23 in5.8 mm 0.12 in/hr3.0 mm/hr 0.29 in7.4 mm
07:55 AM 49.5°F9.7°C 47.9°F8.8°C 94% 2.0 mph S3.2 kmh S 6.0 mph9.7 kmh 29.55 in1000.7 mb 0.25 in6.4 mm 0.24 in/hr6.1 mm/hr 0.31 in7.9 mm
08:00 AM 49.5°F9.7°C 47.9°F8.8°C 94% 5.0 mph S8.0 kmh S 5.0 mph8.0 kmh 29.56 in1001.0 mb 0.24 in6.1 mm 0.00 in/hr0.0 mm/hr 0.31 in7.9 mm
08:05 AM 49.5°F9.7°C 47.9°F8.8°C 94% Calm Calm 7.0 mph11.3 kmh 29.56 in1001.0 mb 0.26 in6.6 mm 0.24 in/hr6.1 mm/hr 0.33 in8.4 mm
08:10 AM 49.4°F9.7°C 47.8°F8.8°C 94% 6.0 mph SSW9.7 kmh SSW 10.0 mph16.1 kmh 29.56 in1001.0 mb 0.23 in5.8 mm 0.00 in/hr0.0 mm/hr 0.33 in8.4 mm
08:15 AM 49.5°F9.7°C 47.9°F8.8°C 94% 3.0 mph S4.8 kmh S 10.0 mph16.1 kmh 29.56 in1001.0 mb 0.25 in6.4 mm 0.24 in/hr6.1 mm/hr 0.35 in8.9 mm
08:20 AM 49.5°F9.7°C 47.9°F8.8°C 94% 2.0 mph SSE3.2 kmh SSE 2.0 mph3.2 kmh 29.55 in1000.7 mb 0.22 in5.6 mm 0.00 in/hr0.0 mm/hr 0.35 in8.9 mm
08:25 AM 49.5°F9.7°C 47.9°F8.8°C 94% Calm Calm 4.0 mph6.4 kmh 29.55 in1000.7 mb 0.23 in5.8 mm 0.12 in/hr3.0 mm/hr 0.36 in9.1 mm
08:30 AM 49.5°F9.7°C 47.9°F8.8°C 94% Calm Calm 1.0 mph1.6 kmh 29.55 in1000.7 mb 0.21 in5.3 mm 0.00 in/hr0.0 mm/hr 0.36 in9.1 mm
08:35 AM 49.6°F9.8°C 48.0°F8.9°C 94% 2.0 mph S3.2 kmh S 7.0 mph11.3 kmh 29.55 in1000.7 mb 0.22 in5.6 mm 0.12 in/hr3.0 mm/hr 0.37 in9.4 mm
08:40 AM 49.7°F9.8°C 48.1°F8.9°C 94% 2.0 mph SW3.2 kmh SW 4.0 mph6.4 kmh 29.55 in1000.7 mb 0.19 in4.8 mm 0.00 in/hr0.0 mm/hr 0.37 in9.4 mm
08:45 AM 49.8°F9.9°C 48.2°F9.0°C 94% 2.0 mph S3.2 kmh S 10.0 mph16.1 kmh 29.55 in1000.7 mb 0.21 in5.3 mm 0.24 in/hr6.1 mm/hr 0.39 in9.9 mm
08:50 AM 49.8°F9.9°C 48.2°F9.0°C 94% Calm Calm -- 29.54 in1000.3 mb 0.22 in5.6 mm 0.12 in/hr3.0 mm/hr 0.40 in10.2 mm
08:55 AM 49.8°F9.9°C 48.2°F9.0°C 94% 1.0 mph S1.6 kmh S 5.0 mph8.0 kmh 29.54 in1000.3 mb 0.24 in6.1 mm 0.24 in/hr6.1 mm/hr 0.42 in10.7 mm
09:00 AM 49.9°F9.9°C 48.3°F9.1°C 94% 3.0 mph S4.8 kmh S 3.0 mph4.8 kmh 29.54 in1000.3 mb 0.22 in5.6 mm 0.00 in/hr0.0 mm/hr 0.42 in10.7 mm
09:05 AM 49.8°F9.9°C 48.2°F9.0°C 94% 2.0 mph SSW3.2 kmh SSW 5.0 mph8.0 kmh 29.54 in1000.3 mb 0.23 in5.8 mm 0.12 in/hr3.0 mm/hr 0.43 in10.9 mm
09:10 AM 49.8°F9.9°C 48.2°F9.0°C 94% Calm Calm -- 29.54 in1000.3 mb 0.22 in5.6 mm 0.00 in/hr0.0 mm/hr 0.43 in10.9 mm
09:15 AM 49.7°F9.8°C 48.1°F8.9°C 94% Calm Calm 5.0 mph8.0 kmh 29.54 in1000.3 mb 0.23 in5.8 mm 0.12 in/hr3.0 mm/hr 0.44 in11.2 mm
09:20 AM 49.7°F9.8°C 48.1°F8.9°C 94% 2.0 mph SW3.2 kmh SW 7.0 mph11.3 kmh 29.54 in1000.3 mb 0.20 in5.1 mm 0.00 in/hr0.0 mm/hr 0.44 in11.2 mm
09:25 AM 49.7°F9.8°C 48.1°F8.9°C 94% 5.0 mph SSW8.0 kmh SSW 13.0 mph20.9 kmh 29.54 in1000.3 mb 0.21 in5.3 mm 0.12 in/hr3.0 mm/hr 0.45 in11.4 mm
09:30 AM 49.8°F9.9°C 48.2°F9.0°C 94% 7.0 mph S11.3 kmh S 7.0 mph11.3 kmh 29.53 in1000.0 mb 0.20 in5.1 mm 0.00 in/hr0.0 mm/hr 0.45 in11.4 mm
09:35 AM 49.9°F9.9°C 48.3°F9.1°C 94% 3.0 mph SW4.8 kmh SW 12.0 mph19.3 kmh 29.53 in1000.0 mb 0.20 in5.1 mm 0.00 in/hr0.0 mm/hr 0.45 in11.4 mm
09:40 AM 50.0°F10.0°C 48.4°F9.1°C 94% 2.0 mph SW3.2 kmh SW 6.0 mph9.7 kmh 29.53 in1000.0 mb 0.19 in4.8 mm 0.00 in/hr0.0 mm/hr 0.45 in11.4 mm
09:45 AM 50.1°F10.1°C 48.4°F9.1°C 94% 3.0 mph SSW4.8 kmh SSW 9.0 mph14.5 kmh 29.53 in1000.0 mb 0.19 in4.8 mm 0.00 in/hr0.0 mm/hr 0.45 in11.4 mm
09:50 AM 50.1°F10.1°C 48.4°F9.1°C 94% 3.0 mph SW4.8 kmh SW 5.0 mph8.0 kmh 29.54 in1000.3 mb 0.11 in2.8 mm 0.00 in/hr0.0 mm/hr 0.45 in11.4 mm
09:55 AM 50.1°F10.1°C 48.4°F9.1°C 94% 5.0 mph WSW8.0 kmh WSW 7.0 mph11.3 kmh 29.52 in999.7 mb 0.11 in2.8 mm 0.00 in/hr0.0 mm/hr 0.45 in11.4 mm
10:00 AM 50.2°F10.1°C 48.5°F9.2°C 94% 5.0 mph SW8.0 kmh SW 6.0 mph9.7 kmh 29.51 in999.3 mb 0.07 in1.8 mm 0.00 in/hr0.0 mm/hr 0.45 in11.4 mm
10:05 AM 50.1°F10.1°C 48.4°F9.1°C 94% 1.0 mph SW1.6 kmh SW 7.0 mph11.3 kmh 29.50 in999.0 mb 0.07 in1.8 mm 0.00 in/hr0.0 mm/hr 0.45 in11.4 mm
10:10 AM 50.2°F10.1°C 48.5°F9.2°C 94% 3.0 mph SSW4.8 kmh SSW 4.0 mph6.4 kmh 29.50 in999.0 mb 0.05 in1.3 mm 0.00 in/hr0.0 mm/hr 0.45 in11.4 mm
10:15 AM 50.3°F10.2°C 48.6°F9.2°C 94% 3.0 mph SW4.8 kmh SW 5.0 mph8.0 kmh 29.51 in999.3 mb 0.05 in1.3 mm 0.00 in/hr0.0 mm/hr 0.45 in11.4 mm
10:20 AM 50.2°F10.1°C 48.5°F9.2°C 94% 1.0 mph SW1.6 kmh SW 3.0 mph4.8 kmh 29.51 in999.3 mb 0.03 in0.8 mm 0.00 in/hr0.0 mm/hr 0.45 in11.4 mm
10:25 AM 50.0°F10.0°C 48.4°F9.1°C 94% 1.0 mph SW1.6 kmh SW 5.0 mph8.0 kmh 29.51 in999.3 mb 0.03 in0.8 mm 0.00 in/hr0.0 mm/hr 0.45 in11.4 mm
10:30 AM 50.0°F10.0°C 48.4°F9.1°C 94% 1.0 mph SW1.6 kmh SW 4.0 mph6.4 kmh 29.51 in999.3 mb 0.01 in0.3 mm 0.00 in/hr0.0 mm/hr 0.45 in11.4 mm
10:35 AM 50.2°F10.1°C 48.5°F9.2°C 94% 3.0 mph SSW4.8 kmh SSW 5.0 mph8.0 kmh 29.51 in999.3 mb 0.01 in0.3 mm 0.00 in/hr0.0 mm/hr 0.45 in11.4 mm
10:40 AM 50.4°F10.2°C 48.7°F9.3°C 94% 4.0 mph SW6.4 kmh SW 10.0 mph16.1 kmh 29.50 in999.0 mb 0.00 in0.0 mm 0.00 in/hr0.0 mm/hr 0.45 in11.4 mm
10:45 AM 50.5°F10.3°C 48.8°F9.3°C 94% 3.0 mph SW4.8 kmh SW 10.0 mph16.1 kmh 29.51 in999.3 mb 0.00 in0.0 mm 0.00 in/hr0.0 mm/hr 0.45 in11.4 mm
10:50 AM 50.6°F10.3°C 48.9°F9.4°C 94% 4.0 mph SW6.4 kmh SW 5.0 mph8.0 kmh 29.51 in999.3 mb 0.00 in0.0 mm 0.00 in/hr0.0 mm/hr 0.45 in11.4 mm
10:55 AM 50.6°F10.3°C 48.9°F9.4°C 94% 1.0 mph SW1.6 kmh SW 7.0 mph11.3 kmh 29.50 in999.0 mb 0.00 in0.0 mm 0.00 in/hr0.0 mm/hr 0.45 in11.4 mm
11:00 AM 50.6°F10.3°C 48.9°F9.4°C 94% 5.0 mph SSW8.0 kmh SSW 5.0 mph8.0 kmh 29.50 in999.0 mb 0.00 in0.0 mm 0.00 in/hr0.0 mm/hr 0.45 in11.4 mm
11:05 AM 50.6°F10.3°C 48.9°F9.4°C 94% 2.0 mph SW3.2 kmh SW 10.0 mph16.1 kmh 29.50 in999.0 mb 0.00 in0.0 mm 0.00 in/hr0.0 mm/hr 0.45 in11.4 mm
11:10 AM 50.5°F10.3°C 48.8°F9.3°C 94% 4.0 mph WSW6.4 kmh WSW 10.0 mph16.1 kmh 29.51 in999.3 mb 0.00 in0.0 mm 0.00 in/hr0.0 mm/hr 0.45 in11.4 mm
11:15 AM 50.5°F10.3°C 48.8°F9.3°C 94% 3.0 mph WSW4.8 kmh WSW 10.0 mph16.1 kmh 29.51 in999.3 mb 0.00 in0.0 mm 0.00 in/hr0.0 mm/hr 0.45 in11.4 mm
11:20 AM 50.4°F10.2°C 48.7°F9.3°C 94% 5.0 mph SW8.0 kmh SW 7.0 mph11.3 kmh 29.50 in999.0 mb 0.00 in0.0 mm 0.00 in/hr0.0 mm/hr 0.45 in11.4 mm
11:25 AM 50.4°F10.2°C 48.7°F9.3°C 94% 5.0 mph SW8.0 kmh SW 12.0 mph19.3 kmh 29.50 in999.0 mb 0.00 in0.0 mm 0.00 in/hr0.0 mm/hr 0.45 in11.4 mm
11:30 AM 50.4°F10.2°C 48.7°F9.3°C 94% 3.0 mph SW4.8 kmh SW 6.0 mph9.7 kmh 29.50 in999.0 mb 0.00 in0.0 mm 0.00 in/hr0.0 mm/hr 0.45 in11.4 mm
11:35 AM 50.7°F10.4°C 49.0°F9.4°C 94% 5.0 mph SW8.0 kmh SW 11.0 mph17.7 kmh 29.51 in999.3 mb 0.00 in0.0 mm 0.00 in/hr0.0 mm/hr 0.45 in11.4 mm
11:40 AM 50.9°F10.5°C 49.2°F9.6°C 94% 3.0 mph SW4.8 kmh SW 10.0 mph16.1 kmh 29.51 in999.3 mb 0.00 in0.0 mm 0.00 in/hr0.0 mm/hr 0.45 in11.4 mm
11:45 AM 50.8°F10.4°C 48.9°F9.4°C 93% 4.0 mph SSW6.4 kmh SSW 16.0 mph25.7 kmh 29.50 in999.0 mb 0.00 in0.0 mm 0.00 in/hr0.0 mm/hr 0.45 in11.4 mm
11:50 AM 51.0°F10.6°C 48.8°F9.3°C 92% 10.0 mph S16.1 kmh S 10.0 mph16.1 kmh 29.50 in999.0 mb 0.00 in0.0 mm 0.00 in/hr0.0 mm/hr 0.45 in11.4 mm
11:55 AM 51.0°F10.6°C 48.8°F9.3°C 92% 6.0 mph SSW9.7 kmh SSW 13.0 mph20.9 kmh 29.50 in999.0 mb 0.00 in0.0 mm 0.00 in/hr0.0 mm/hr 0.45 in11.4 mm
12:00 PM 51.0°F10.6°C 48.8°F9.3°C 92% 5.0 mph SSW8.0 kmh SSW 9.0 mph14.5 kmh 29.48 in998.3 mb 0.00 in0.0 mm 0.00 in/hr0.0 mm/hr 0.45 in11.4 mm
12:05 PM 51.1°F10.6°C 48.6°F9.2°C 91% 4.0 mph S6.4 kmh S 11.0 mph17.7 kmh 29.48 in998.3 mb 0.00 in0.0 mm 0.00 in/hr0.0 mm/hr 0.45 in11.4 mm
12:10 PM 51.1°F10.6°C 48.6°F9.2°C 91% 4.0 mph S6.4 kmh S 9.0 mph14.5 kmh 29.47 in998.0 mb 0.00 in0.0 mm 0.00 in/hr0.0 mm/hr 0.45 in11.4 mm
12:15 PM 51.2°F10.7°C 48.7°F9.3°C 91% 3.0 mph SSW4.8 kmh SSW 13.0 mph20.9 kmh 29.46 in997.6 mb 0.00 in0.0 mm 0.00 in/hr0.0 mm/hr 0.45 in11.4 mm
12:20 PM 51.3°F10.7°C 48.8°F9.3°C 91% Calm Calm 9.0 mph14.5 kmh 29.46 in997.6 mb 0.00 in0.0 mm 0.00 in/hr0.0 mm/hr 0.45 in11.4 mm
12:25 PM 51.3°F10.7°C 48.8°F9.3°C 91% 4.0 mph SW6.4 kmh SW 13.0 mph20.9 kmh 29.46 in997.6 mb 0.00 in0.0 mm 0.00 in/hr0.0 mm/hr 0.45 in11.4 mm
12:30 PM 51.3°F10.7°C 48.8°F9.3°C 91% 4.0 mph SSW6.4 kmh SSW 7.0 mph11.3 kmh 29.46 in997.6 mb 0.00 in0.0 mm 0.00 in/hr0.0 mm/hr 0.45 in11.4 mm
12:35 PM 51.3°F10.7°C 48.8°F9.3°C 91% 3.0 mph SSW4.8 kmh SSW 13.0 mph20.9 kmh 29.45 in997.3 mb 0.00 in0.0 mm 0.00 in/hr0.0 mm/hr 0.45 in11.4 mm
12:40 PM 51.4°F10.8°C 48.9°F9.4°C 91% 7.0 mph SW11.3 kmh SW 11.0 mph17.7 kmh 29.44 in997.0 mb 0.00 in0.0 mm 0.00 in/hr0.0 mm/hr 0.45 in11.4 mm
12:45 PM 51.5°F10.8°C 48.7°F9.3°C 90% 9.0 mph SW14.5 kmh SW 16.0 mph25.7 kmh 29.44 in997.0 mb 0.00 in0.0 mm 0.00 in/hr0.0 mm/hr 0.45 in11.4 mm
12:50 PM 51.5°F10.8°C 48.7°F9.3°C 90% 2.0 mph SW3.2 kmh SW 12.0 mph19.3 kmh 29.44 in997.0 mb 0.00 in0.0 mm 0.00 in/hr0.0 mm/hr 0.45 in11.4 mm
12:55 PM 51.8°F11.0°C 49.0°F9.4°C 90% 13.0 mph SW20.9 kmh SW 13.0 mph20.9 kmh 29.43 in996.6 mb 0.00 in0.0 mm 0.00 in/hr0.0 mm/hr 0.45 in11.4 mm
01:00 PM 52.0°F11.1°C 49.2°F9.6°C 90% 3.0 mph S4.8 kmh S 5.0 mph8.0 kmh 29.43 in996.6 mb 0.00 in0.0 mm 0.00 in/hr0.0 mm/hr 0.45 in11.4 mm
01:05 PM 52.1°F11.2°C 49.3°F9.6°C 90% 10.0 mph SSW16.1 kmh SSW 14.0 mph22.5 kmh 29.42 in996.3 mb 0.00 in0.0 mm 0.00 in/hr0.0 mm/hr 0.45 in11.4 mm
01:10 PM 52.0°F11.1°C 48.9°F9.4°C 89% 6.0 mph SSW9.7 kmh SSW 9.0 mph14.5 kmh 29.43 in996.6 mb 0.00 in0.0 mm 0.00 in/hr0.0 mm/hr 0.45 in11.4 mm
01:15 PM 51.9°F11.1°C 49.1°F9.5°C 90% 11.0 mph SW17.7 kmh SW 16.0 mph25.7 kmh 29.43 in996.6 mb 0.00 in0.0 mm 0.00 in/hr0.0 mm/hr 0.45 in11.4 mm
01:20 PM 51.9°F11.1°C 49.1°F9.5°C 90% 6.0 mph SW9.7 kmh SW 13.0 mph20.9 kmh 29.42 in996.3 mb 0.00 in0.0 mm 0.00 in/hr0.0 mm/hr 0.45 in11.4 mm
01:25 PM 52.0°F11.1°C 49.2°F9.6°C 90% 5.0 mph S8.0 kmh S 16.0 mph25.7 kmh 29.41 in995.9 mb 0.00 in0.0 mm 0.00 in/hr0.0 mm/hr 0.45 in11.4 mm
01:30 PM 52.1°F11.2°C 49.3°F9.6°C 90% 9.0 mph SW14.5 kmh SW 11.0 mph17.7 kmh 29.41 in995.9 mb 0.00 in0.0 mm 0.00 in/hr0.0 mm/hr 0.45 in11.4 mm
01:35 PM 52.2°F11.2°C 49.4°F9.7°C 90% 5.0 mph WSW8.0 kmh WSW 16.0 mph25.7 kmh 29.41 in995.9 mb 0.00 in0.0 mm 0.00 in/hr0.0 mm/hr 0.45 in11.4 mm
01:40 PM 52.3°F11.3°C 49.5°F9.7°C 90% 10.0 mph SSW16.1 kmh SSW 10.0 mph16.1 kmh 29.40 in995.6 mb 0.00 in0.0 mm 0.00 in/hr0.0 mm/hr 0.45 in11.4 mm
01:45 PM 52.4°F11.3°C 49.3°F9.6°C 89% 5.0 mph SW8.0 kmh SW 17.0 mph27.4 kmh 29.39 in995.3 mb 0.00 in0.0 mm 0.00 in/hr0.0 mm/hr 0.45 in11.4 mm
01:50 PM 52.4°F11.3°C 49.3°F9.6°C 89% 11.0 mph SW17.7 kmh SW 17.0 mph27.4 kmh 29.38 in994.9 mb 0.00 in0.0 mm 0.00 in/hr0.0 mm/hr 0.45 in11.4 mm
01:55 PM 52.4°F11.3°C 49.3°F9.6°C 89% 11.0 mph SW17.7 kmh SW 18.0 mph29.0 kmh 29.39 in995.3 mb 0.00 in0.0 mm 0.00 in/hr0.0 mm/hr 0.45 in11.4 mm
02:00 PM 52.5°F11.4°C 49.4°F9.7°C 89% 9.0 mph SW14.5 kmh SW 13.0 mph20.9 kmh 29.38 in994.9 mb 0.00 in0.0 mm 0.00 in/hr0.0 mm/hr 0.45 in11.4 mm
02:05 PM 52.5°F11.4°C 49.4°F9.7°C 89% 4.0 mph WSW6.4 kmh WSW 19.0 mph30.6 kmh 29.38 in994.9 mb 0.00 in0.0 mm 0.00 in/hr0.0 mm/hr 0.45 in11.4 mm
02:10 PM 52.5°F11.4°C 49.4°F9.7°C 89% 21.0 mph SW33.8 kmh SW 24.0 mph38.6 kmh 29.38 in994.9 mb 0.00 in0.0 mm 0.00 in/hr0.0 mm/hr 0.45 in11.4 mm
02:15 PM 52.6°F11.4°C 49.5°F9.7°C 89% 7.0 mph SW11.3 kmh SW 24.0 mph38.6 kmh 29.39 in995.3 mb 0.00 in0.0 mm 0.00 in/hr0.0 mm/hr 0.45 in11.4 mm
02:20 PM 52.7°F11.5°C 49.6°F9.8°C 89% 10.0 mph WSW16.1 kmh WSW 17.0 mph27.4 kmh 29.38 in994.9 mb 0.00 in0.0 mm 0.00 in/hr0.0 mm/hr 0.45 in11.4 mm
02:25 PM 52.7°F11.5°C 49.6°F9.8°C 89% 13.0 mph SW20.9 kmh SW 26.0 mph41.8 kmh 29.38 in994.9 mb 0.00 in0.0 mm 0.00 in/hr0.0 mm/hr 0.45 in11.4 mm
02:30 PM 52.7°F11.5°C 49.6°F9.8°C 89% 7.0 mph SW11.3 kmh SW 10.0 mph16.1 kmh 29.38 in994.9 mb 0.00 in0.0 mm 0.00 in/hr0.0 mm/hr 0.45 in11.4 mm
02:35 PM 52.4°F11.3°C 49.3°F9.6°C 89% 7.0 mph SSW11.3 kmh SSW 17.0 mph27.4 kmh 29.37 in994.6 mb 0.00 in0.0 mm 0.00 in/hr0.0 mm/hr 0.45 in11.4 mm
02:40 PM 52.3°F11.3°C 49.5°F9.7°C 90% 9.0 mph SW14.5 kmh SW 12.0 mph19.3 kmh 29.37 in994.6 mb 0.00 in0.0 mm 0.00 in/hr0.0 mm/hr 0.45 in11.4 mm
02:45 PM 52.3°F11.3°C 49.5°F9.7°C 90% 8.0 mph WSW12.9 kmh WSW 20.0 mph32.2 kmh 29.37 in994.6 mb 0.00 in0.0 mm 0.00 in/hr0.0 mm/hr 0.45 in11.4 mm
02:50 PM 52.3°F11.3°C 49.5°F9.7°C 90% 7.0 mph WSW11.3 kmh WSW 15.0 mph24.1 kmh 29.38 in994.9 mb 0.00 in0.0 mm 0.00 in/hr0.0 mm/hr 0.45 in11.4 mm
02:55 PM 52.4°F11.3°C 49.3°F9.6°C 89% 6.0 mph SW9.7 kmh SW 21.0 mph33.8 kmh 29.37 in994.6 mb 0.00 in0.0 mm 0.00 in/hr0.0 mm/hr 0.45 in11.4 mm
03:00 PM 52.4°F11.3°C 49.3°F9.6°C 89% 8.0 mph SW12.9 kmh SW 13.0 mph20.9 kmh 29.37 in994.6 mb 0.00 in0.0 mm 0.00 in/hr0.0 mm/hr 0.45 in11.4 mm
03:05 PM 52.4°F11.3°C 49.0°F9.4°C 88% 9.0 mph SW14.5 kmh SW 23.0 mph37.0 kmh 29.38 in994.9 mb 0.00 in0.0 mm 0.00 in/hr0.0 mm/hr 0.45 in11.4 mm
03:10 PM 52.0°F11.1°C 47.6°F8.7°C 85% 11.0 mph W17.7 kmh W 31.0 mph49.9 kmh 29.39 in995.3 mb 0.00 in0.0 mm 0.00 in/hr0.0 mm/hr 0.45 in11.4 mm
03:15 PM 51.4°F10.8°C 46.1°F7.8°C 82% 19.0 mph SW30.6 kmh SW 31.0 mph49.9 kmh 29.40 in995.6 mb 0.00 in0.0 mm 0.00 in/hr0.0 mm/hr 0.45 in11.4 mm
03:20 PM 50.9°F10.5°C 45.6°F7.6°C 82% 16.0 mph WSW25.7 kmh WSW 22.0 mph35.4 kmh 29.40 in995.6 mb 0.00 in0.0 mm 0.00 in/hr0.0 mm/hr 0.45 in11.4 mm
03:25 PM 50.5°F10.3°C 45.5°F7.5°C 83% 20.0 mph WNW32.2 kmh WNW 27.0 mph43.5 kmh 29.42 in996.3 mb 0.00 in0.0 mm 0.00 in/hr0.0 mm/hr 0.45 in11.4 mm
03:30 PM 49.8°F9.9°C 44.5°F6.9°C 82% 12.0 mph W19.3 kmh W 19.0 mph30.6 kmh 29.42 in996.3 mb 0.00 in0.0 mm 0.00 in/hr0.0 mm/hr 0.45 in11.4 mm
03:35 PM 48.9°F9.4°C 44.0°F6.7°C 83% 25.0 mph W40.2 kmh W 37.0 mph59.5 kmh 29.43 in996.6 mb 0.00 in0.0 mm 0.00 in/hr0.0 mm/hr 0.45 in11.4 mm
03:40 PM 48.0°F8.9°C 42.8°F6.0°C 82% 9.0 mph W14.5 kmh W 24.0 mph38.6 kmh 29.44 in997.0 mb 0.00 in0.0 mm 0.00 in/hr0.0 mm/hr 0.45 in11.4 mm
03:45 PM 47.3°F8.5°C 42.1°F5.6°C 82% 23.0 mph W37.0 kmh W 36.0 mph57.9 kmh 29.45 in997.3 mb 0.00 in0.0 mm 0.00 in/hr0.0 mm/hr 0.45 in11.4 mm
03:50 PM 46.1°F7.8°C 40.9°F4.9°C 82% 15.0 mph WNW24.1 kmh WNW 27.0 mph43.5 kmh 29.46 in997.6 mb 0.00 in0.0 mm 0.00 in/hr0.0 mm/hr 0.45 in11.4 mm
03:55 PM 44.9°F7.2°C 39.1°F3.9°C 80% 25.0 mph W40.2 kmh W 31.0 mph49.9 kmh 29.47 in998.0 mb 0.00 in0.0 mm 0.00 in/hr0.0 mm/hr 0.45 in11.4 mm
04:00 PM 44.2°F6.8°C 38.4°F3.6°C 80% 20.0 mph W32.2 kmh W 23.0 mph37.0 kmh 29.47 in998.0 mb 0.00 in0.0 mm 0.00 in/hr0.0 mm/hr 0.45 in11.4 mm
04:05 PM 43.7°F6.5°C 38.3°F3.5°C 81% 14.0 mph WNW22.5 kmh WNW 25.0 mph40.2 kmh 29.48 in998.3 mb 0.00 in0.0 mm 0.00 in/hr0.0 mm/hr 0.45 in11.4 mm
04:10 PM 43.1°F6.2°C 38.0°F3.3°C 82% 6.0 mph NW9.7 kmh NW 23.0 mph37.0 kmh 29.49 in998.6 mb 0.00 in0.0 mm 0.00 in/hr0.0 mm/hr 0.45 in11.4 mm
04:15 PM 42.6°F5.9°C 37.8°F3.2°C 83% 28.0 mph W45.1 kmh W 30.0 mph48.3 kmh 29.50 in999.0 mb 0.00 in0.0 mm 0.00 in/hr0.0 mm/hr 0.45 in11.4 mm
04:20 PM 42.0°F5.6°C 36.6°F2.6°C 81% 12.0 mph W19.3 kmh W 25.0 mph40.2 kmh 29.51 in999.3 mb 0.00 in0.0 mm 0.00 in/hr0.0 mm/hr 0.45 in11.4 mm
04:25 PM 41.8°F5.4°C 36.4°F2.4°C 81% 16.0 mph WNW25.7 kmh WNW 27.0 mph43.5 kmh 29.51 in999.3 mb 0.00 in0.0 mm 0.00 in/hr0.0 mm/hr 0.45 in11.4 mm
04:30 PM 41.3°F5.2°C 35.9°F2.2°C 81% 12.0 mph WSW19.3 kmh WSW 16.0 mph25.7 kmh 29.53 in1000.0 mb 0.00 in0.0 mm 0.00 in/hr0.0 mm/hr 0.45 in11.4 mm
04:35 PM 40.5°F4.7°C 35.5°F1.9°C 82% 19.0 mph WNW30.6 kmh WNW 31.0 mph49.9 kmh 29.54 in1000.3 mb 0.00 in0.0 mm 0.00 in/hr0.0 mm/hr 0.45 in11.4 mm
04:40 PM 40.0°F4.4°C 35.3°F1.8°C 83% 21.0 mph NW33.8 kmh NW 27.0 mph43.5 kmh 29.54 in1000.3 mb 0.00 in0.0 mm 0.00 in/hr0.0 mm/hr 0.45 in11.4 mm
04:45 PM 39.3°F4.1°C 34.3°F1.3°C 82% 13.0 mph NW20.9 kmh NW 33.0 mph53.1 kmh 29.55 in1000.7 mb 0.00 in0.0 mm 0.00 in/hr0.0 mm/hr 0.45 in11.4 mm
04:50 PM 39.0°F3.9°C 34.0°F1.1°C 82% 5.0 mph WNW8.0 kmh WNW 22.0 mph35.4 kmh 29.56 in1001.0 mb 0.00 in0.0 mm 0.00 in/hr0.0 mm/hr 0.45 in11.4 mm
04:55 PM 38.6°F3.7°C 33.6°F0.9°C 82% 21.0 mph WNW33.8 kmh WNW 28.0 mph45.1 kmh 29.57 in1001.4 mb 0.00 in0.0 mm 0.00 in/hr0.0 mm/hr 0.45 in11.4 mm
05:00 PM 38.5°F3.6°C 33.5°F0.8°C 82% 18.0 mph NW29.0 kmh NW 19.0 mph30.6 kmh 29.57 in1001.4 mb 0.00 in0.0 mm 0.00 in/hr0.0 mm/hr 0.45 in11.4 mm
05:05 PM 38.1°F3.4°C 33.1°F0.6°C 82% 10.0 mph W16.1 kmh W 24.0 mph38.6 kmh 29.57 in1001.4 mb 0.00 in0.0 mm 0.00 in/hr0.0 mm/hr 0.45 in11.4 mm
05:10 PM 37.8°F3.2°C 32.8°F0.4°C 82% 12.0 mph NNW19.3 kmh NNW 20.0 mph32.2 kmh 29.59 in1002.0 mb 0.00 in0.0 mm 0.00 in/hr0.0 mm/hr 0.45 in11.4 mm
05:15 PM 37.5°F3.1°C 32.5°F0.3°C 82% 11.0 mph WSW17.7 kmh WSW 23.0 mph37.0 kmh 29.60 in1002.4 mb 0.00 in0.0 mm 0.00 in/hr0.0 mm/hr 0.45 in11.4 mm
05:20 PM 37.3°F2.9°C 32.6°F0.3°C 83% 13.0 mph WSW20.9 kmh WSW 18.0 mph29.0 kmh 29.61 in1002.7 mb 0.00 in0.0 mm 0.00 in/hr0.0 mm/hr 0.45 in11.4 mm
05:25 PM 37.2°F2.9°C 32.2°F0.1°C 82% 5.0 mph NW8.0 kmh NW 23.0 mph37.0 kmh 29.61 in1002.7 mb 0.00 in0.0 mm 0.00 in/hr0.0 mm/hr 0.45 in11.4 mm
05:30 PM 37.1°F2.8°C 31.8°F-0.1°C 81% 3.0 mph NW4.8 kmh NW 15.0 mph24.1 kmh 29.62 in1003.0 mb 0.00 in0.0 mm 0.00 in/hr0.0 mm/hr 0.45 in11.4 mm
05:35 PM 37.0°F2.8°C 31.4°F-0.3°C 80% 13.0 mph WNW20.9 kmh WNW 22.0 mph35.4 kmh 29.63 in1003.4 mb 0.00 in0.0 mm 0.00 in/hr0.0 mm/hr 0.45 in11.4 mm
05:40 PM 36.9°F2.7°C 31.3°F-0.4°C 80% 15.0 mph NW24.1 kmh NW 19.0 mph30.6 kmh 29.63 in1003.4 mb 0.00 in0.0 mm 0.00 in/hr0.0 mm/hr 0.45 in11.4 mm
05:45 PM 36.7°F2.6°C 30.5°F-0.8°C 78% 5.0 mph WNW8.0 kmh WNW 28.0 mph45.1 kmh 29.64 in1003.7 mb 0.00 in0.0 mm 0.00 in/hr0.0 mm/hr 0.45 in11.4 mm
05:50 PM 36.5°F2.5°C 30.6°F-0.8°C 79% 7.0 mph NW11.3 kmh NW 12.0 mph19.3 kmh 29.65 in1004.1 mb 0.00 in0.0 mm 0.00 in/hr0.0 mm/hr 0.45 in11.4 mm
05:55 PM 36.4°F2.4°C 30.5°F-0.8°C 79% 11.0 mph SW17.7 kmh SW 19.0 mph30.6 kmh 29.66 in1004.4 mb 0.00 in0.0 mm 0.00 in/hr0.0 mm/hr 0.45 in11.4 mm
06:00 PM 36.1°F2.3°C 29.9°F-1.2°C 78% 9.0 mph NW14.5 kmh NW 13.0 mph20.9 kmh 29.66 in1004.4 mb 0.00 in0.0 mm 0.00 in/hr0.0 mm/hr 0.45 in11.4 mm
06:05 PM 35.8°F2.1°C 29.6°F-1.3°C 78% 6.0 mph W9.7 kmh W 23.0 mph37.0 kmh 29.67 in1004.7 mb 0.00 in0.0 mm 0.00 in/hr0.0 mm/hr 0.45 in11.4 mm
06:10 PM 35.7°F2.1°C 29.5°F-1.4°C 78% 4.0 mph W6.4 kmh W 12.0 mph19.3 kmh 29.67 in1004.7 mb 0.00 in0.0 mm 0.00 in/hr0.0 mm/hr 0.45 in11.4 mm
06:16 PM 35.5°F1.9°C 29.6°F-1.3°C 79% 10.0 mph WSW16.1 kmh WSW 17.0 mph27.4 kmh 29.68 in1005.1 mb 0.00 in0.0 mm 0.00 in/hr0.0 mm/hr 0.45 in11.4 mm
06:20 PM 35.5°F1.9°C 29.6°F-1.3°C 79% 7.0 mph W11.3 kmh W 12.0 mph19.3 kmh 29.69 in1005.4 mb 0.00 in0.0 mm 0.00 in/hr0.0 mm/hr 0.45 in11.4 mm
06:25 PM 35.4°F1.9°C 29.9°F-1.2°C 80% 10.0 mph WSW16.1 kmh WSW 14.0 mph22.5 kmh 29.69 in1005.4 mb 0.00 in0.0 mm 0.00 in/hr0.0 mm/hr 0.45 in11.4 mm
06:30 PM 35.3°F1.8°C 29.5°F-1.4°C 79% 5.0 mph WSW8.0 kmh WSW 13.0 mph20.9 kmh 29.70 in1005.8 mb 0.00 in0.0 mm 0.00 in/hr0.0 mm/hr 0.45 in11.4 mm
06:35 PM 35.2°F1.8°C 29.4°F-1.4°C 79% 4.0 mph WNW6.4 kmh WNW 14.0 mph22.5 kmh 29.70 in1005.8 mb 0.00 in0.0 mm 0.00 in/hr0.0 mm/hr 0.45 in11.4 mm
06:40 PM 35.1°F1.7°C 29.6°F-1.3°C 80% 6.0 mph WSW9.7 kmh WSW 7.0 mph11.3 kmh 29.71 in1006.1 mb 0.00 in0.0 mm 0.00 in/hr0.0 mm/hr 0.45 in11.4 mm
06:45 PM 35.0°F1.7°C 29.5°F-1.4°C 80% 14.0 mph SW22.5 kmh SW 15.0 mph24.1 kmh 29.71 in1006.1 mb 0.00 in0.0 mm 0.00 in/hr0.0 mm/hr 0.45 in11.4 mm
06:50 PM 34.9°F1.6°C 29.4°F-1.4°C 80% 6.0 mph WNW9.7 kmh WNW 13.0 mph20.9 kmh 29.72 in1006.4 mb 0.00 in0.0 mm 0.00 in/hr0.0 mm/hr 0.45 in11.4 mm
06:55 PM 34.8°F1.6°C 29.3°F-1.5°C 80% 4.0 mph WNW6.4 kmh WNW 19.0 mph30.6 kmh 29.73 in1006.8 mb 0.00 in0.0 mm 0.00 in/hr0.0 mm/hr 0.45 in11.4 mm
07:00 PM 34.6°F1.4°C 29.1°F-1.6°C 80% 19.0 mph W30.6 kmh W 19.0 mph30.6 kmh 29.73 in1006.8 mb 0.00 in0.0 mm 0.00 in/hr0.0 mm/hr 0.45 in11.4 mm
07:05 PM 34.4°F1.3°C 28.9°F-1.7°C 80% 6.0 mph W9.7 kmh W 23.0 mph37.0 kmh 29.74 in1007.1 mb 0.00 in0.0 mm 0.00 in/hr0.0 mm/hr 0.45 in11.4 mm
07:10 PM 34.4°F1.3°C 28.9°F-1.7°C 80% 14.0 mph NW22.5 kmh NW 14.0 mph22.5 kmh 29.74 in1007.1 mb 0.00 in0.0 mm 0.00 in/hr0.0 mm/hr 0.45 in11.4 mm
07:15 PM 34.4°F1.3°C 28.9°F-1.7°C 80% 9.0 mph NW14.5 kmh NW 16.0 mph25.7 kmh 29.74 in1007.1 mb 0.00 in0.0 mm 0.00 in/hr0.0 mm/hr 0.45 in11.4 mm
07:20 PM 34.4°F1.3°C 28.9°F-1.7°C 80% 10.0 mph NW16.1 kmh NW 15.0 mph24.1 kmh 29.74 in1007.1 mb 0.00 in0.0 mm 0.00 in/hr0.0 mm/hr 0.45 in11.4 mm
07:25 PM 34.4°F1.3°C 28.6°F-1.9°C 79% 10.0 mph NW16.1 kmh NW 17.0 mph27.4 kmh 29.74 in1007.1 mb 0.00 in0.0 mm 0.00 in/hr0.0 mm/hr 0.45 in11.4 mm
07:30 PM 34.4°F1.3°C 28.6°F-1.9°C 79% 12.0 mph NW19.3 kmh NW 16.0 mph25.7 kmh 29.75 in1007.5 mb 0.00 in0.0 mm 0.00 in/hr0.0 mm/hr 0.45 in11.4 mm
07:35 PM 34.4°F1.3°C 28.6°F-1.9°C 79% 5.0 mph W8.0 kmh W 16.0 mph25.7 kmh 29.75 in1007.5 mb 0.00 in0.0 mm 0.00 in/hr0.0 mm/hr 0.45 in11.4 mm
07:40 PM 34.4°F1.3°C 28.6°F-1.9°C 79% 4.0 mph WNW6.4 kmh WNW 16.0 mph25.7 kmh 29.76 in1007.8 mb 0.00 in0.0 mm 0.00 in/hr0.0 mm/hr 0.45 in11.4 mm
07:45 PM 34.4°F1.3°C 28.9°F-1.7°C 80% 7.0 mph NW11.3 kmh NW 16.0 mph25.7 kmh 29.76 in1007.8 mb 0.00 in0.0 mm 0.00 in/hr0.0 mm/hr 0.45 in11.4 mm
07:50 PM 34.4°F1.3°C 28.6°F-1.9°C 79% 3.0 mph WNW4.8 kmh WNW 8.0 mph12.9 kmh 29.77 in1008.1 mb 0.00 in0.0 mm 0.00 in/hr0.0 mm/hr 0.45 in11.4 mm
07:55 PM 34.4°F1.3°C 28.6°F-1.9°C 79% 11.0 mph WNW17.7 kmh WNW 16.0 mph25.7 kmh 29.77 in1008.1 mb 0.00 in0.0 mm 0.00 in/hr0.0 mm/hr 0.45 in11.4 mm
08:00 PM 34.4°F1.3°C 28.6°F-1.9°C 79% 5.0 mph NW8.0 kmh NW 14.0 mph22.5 kmh 29.78 in1008.5 mb 0.00 in0.0 mm 0.00 in/hr0.0 mm/hr 0.45 in11.4 mm
08:05 PM 34.3°F1.3°C 28.5°F-1.9°C 79% 5.0 mph NW8.0 kmh NW 14.0 mph22.5 kmh 29.78 in1008.5 mb 0.00 in0.0 mm 0.00 in/hr0.0 mm/hr 0.45 in11.4 mm
08:10 PM 34.2°F1.2°C 28.1°F-2.2°C 78% 4.0 mph WNW6.4 kmh WNW 12.0 mph19.3 kmh 29.79 in1008.8 mb 0.00 in0.0 mm 0.00 in/hr0.0 mm/hr 0.45 in11.4 mm
08:15 PM 34.1°F1.2°C 28.0°F-2.2°C 78% 5.0 mph W8.0 kmh W 19.0 mph30.6 kmh 29.80 in1009.1 mb 0.00 in0.0 mm 0.00 in/hr0.0 mm/hr 0.45 in11.4 mm
08:20 PM 34.0°F1.1°C 27.9°F-2.3°C 78% 6.0 mph NW9.7 kmh NW 11.0 mph17.7 kmh 29.80 in1009.1 mb 0.00 in0.0 mm 0.00 in/hr0.0 mm/hr 0.45 in11.4 mm
08:25 PM 33.9°F1.1°C 27.8°F-2.3°C 78% Calm Calm 16.0 mph25.7 kmh 29.80 in1009.1 mb 0.00 in0.0 mm 0.00 in/hr0.0 mm/hr 0.45 in11.4 mm
08:35 PM 33.8°F1.0°C 27.7°F-2.4°C 78% 7.0 mph WNW11.3 kmh WNW 18.0 mph29.0 kmh 29.81 in1009.5 mb 0.00 in0.0 mm 0.00 in/hr0.0 mm/hr 0.45 in11.4 mm
08:40 PM 33.5°F0.8°C 26.8°F-2.9°C 76% 6.0 mph NW9.7 kmh NW 9.0 mph14.5 kmh 29.82 in1009.8 mb 0.00 in0.0 mm 0.00 in/hr0.0 mm/hr 0.45 in11.4 mm
08:45 PM 33.3°F0.7°C 26.6°F-3.0°C 76% 10.0 mph WNW16.1 kmh WNW 16.0 mph25.7 kmh 29.82 in1009.8 mb 0.00 in0.0 mm 0.00 in/hr0.0 mm/hr 0.45 in11.4 mm
08:50 PM 33.2°F0.7°C 26.8°F-2.9°C 77% 11.0 mph NW17.7 kmh NW 11.0 mph17.7 kmh 29.82 in1009.8 mb 0.00 in0.0 mm 0.00 in/hr0.0 mm/hr 0.45 in11.4 mm
08:55 PM 33.1°F0.6°C 27.0°F-2.8°C 78% 6.0 mph WNW9.7 kmh WNW 16.0 mph25.7 kmh 29.83 in1010.2 mb 0.00 in0.0 mm 0.00 in/hr0.0 mm/hr 0.45 in11.4 mm
09:00 PM 33.0°F0.6°C 27.2°F-2.7°C 79% 9.0 mph NW14.5 kmh NW 11.0 mph17.7 kmh 29.83 in1010.2 mb 0.00 in0.0 mm 0.00 in/hr0.0 mm/hr 0.45 in11.4 mm
09:05 PM 33.0°F0.6°C 27.2°F-2.7°C 79% 3.0 mph WNW4.8 kmh WNW 11.0 mph17.7 kmh 29.83 in1010.2 mb 0.00 in0.0 mm 0.00 in/hr0.0 mm/hr 0.45 in11.4 mm
09:10 PM 33.0°F0.6°C 27.5°F-2.5°C 80% 8.0 mph W12.9 kmh W 13.0 mph20.9 kmh 29.84 in1010.5 mb 0.00 in0.0 mm 0.00 in/hr0.0 mm/hr 0.45 in11.4 mm
09:15 PM 33.0°F0.6°C 27.2°F-2.7°C 79% 12.0 mph W19.3 kmh W 14.0 mph22.5 kmh 29.84 in1010.5 mb 0.00 in0.0 mm 0.00 in/hr0.0 mm/hr 0.45 in11.4 mm
09:20 PM 33.1°F0.6°C 27.3°F-2.6°C 79% 7.0 mph W11.3 kmh W 9.0 mph14.5 kmh 29.84 in1010.5 mb 0.00 in0.0 mm 0.00 in/hr0.0 mm/hr 0.45 in11.4 mm
09:25 PM 32.9°F0.5°C 27.1°F-2.7°C 79% 10.0 mph NNW16.1 kmh NNW 15.0 mph24.1 kmh 29.85 in1010.8 mb 0.00 in0.0 mm 0.00 in/hr0.0 mm/hr 0.45 in11.4 mm
09:30 PM 32.8°F0.4°C 27.0°F-2.8°C 79% 4.0 mph NW6.4 kmh NW 18.0 mph29.0 kmh 29.85 in1010.8 mb 0.00 in0.0 mm 0.00 in/hr0.0 mm/hr 0.45 in11.4 mm
09:40 PM 32.3°F0.2°C 26.2°F-3.2°C 78% 6.0 mph WSW9.7 kmh WSW 11.0 mph17.7 kmh 29.86 in1011.2 mb 0.00 in0.0 mm 0.00 in/hr0.0 mm/hr 0.45 in11.4 mm
09:45 PM 32.1°F0.1°C 26.0°F-3.3°C 78% 6.0 mph WNW9.7 kmh WNW 20.0 mph32.2 kmh 29.87 in1011.5 mb 0.00 in0.0 mm 0.00 in/hr0.0 mm/hr 0.45 in11.4 mm
09:50 PM 32.0°F0.0°C 25.6°F-3.6°C 77% 2.0 mph WNW3.2 kmh WNW 6.0 mph9.7 kmh 29.88 in1011.9 mb 0.00 in0.0 mm 0.00 in/hr0.0 mm/hr 0.45 in11.4 mm
09:55 PM 32.0°F0.0°C 25.6°F-3.6°C 77% 13.0 mph NW20.9 kmh NW 20.0 mph32.2 kmh 29.88 in1011.9 mb 0.00 in0.0 mm 0.00 in/hr0.0 mm/hr 0.45 in11.4 mm
10:00 PM 32.0°F0.0°C 25.0°F-3.9°C 75% 2.0 mph WNW3.2 kmh WNW 12.0 mph19.3 kmh 29.89 in1012.2 mb 0.00 in0.0 mm 0.00 in/hr0.0 mm/hr 0.45 in11.4 mm
10:05 PM 32.0°F0.0°C 24.7°F-4.1°C 74% 4.0 mph NW6.4 kmh NW 20.0 mph32.2 kmh 29.89 in1012.2 mb 0.00 in0.0 mm 0.00 in/hr0.0 mm/hr 0.45 in11.4 mm
10:10 PM 31.9°F-0.1°C 24.6°F-4.1°C 74% 4.0 mph W6.4 kmh W 14.0 mph22.5 kmh 29.89 in1012.2 mb 0.00 in0.0 mm 0.00 in/hr0.0 mm/hr 0.45 in11.4 mm
10:15 PM 31.9°F-0.1°C 24.9°F-3.9°C 75% 15.0 mph NW24.1 kmh NW 18.0 mph29.0 kmh 29.90 in1012.5 mb 0.00 in0.0 mm 0.00 in/hr0.0 mm/hr 0.45 in11.4 mm
10:20 PM 31.7°F-0.2°C 24.4°F-4.2°C 74% 10.0 mph NW16.1 kmh NW 15.0 mph24.1 kmh 29.90 in1012.5 mb 0.00 in0.0 mm 0.00 in/hr0.0 mm/hr 0.45 in11.4 mm
10:25 PM 31.6°F-0.2°C 24.0°F-4.4°C 73% 2.0 mph W3.2 kmh W 18.0 mph29.0 kmh 29.90 in1012.5 mb 0.00 in0.0 mm 0.00 in/hr0.0 mm/hr 0.45 in11.4 mm
10:30 PM 31.5°F-0.3°C 24.2°F-4.3°C 74% 7.0 mph WNW11.3 kmh WNW 16.0 mph25.7 kmh 29.91 in1012.9 mb 0.00 in0.0 mm 0.00 in/hr0.0 mm/hr 0.45 in11.4 mm
10:35 PM 31.4°F-0.3°C 23.8°F-4.6°C 73% 10.0 mph NW16.1 kmh NW 23.0 mph37.0 kmh 29.91 in1012.9 mb 0.00 in0.0 mm 0.00 in/hr0.0 mm/hr 0.45 in11.4 mm
10:40 PM 31.3°F-0.4°C 24.0°F-4.4°C 74% 6.0 mph NW9.7 kmh NW 13.0 mph20.9 kmh 29.92 in1013.2 mb 0.00 in0.0 mm 0.00 in/hr0.0 mm/hr 0.45 in11.4 mm
10:45 PM 31.1°F-0.5°C 23.8°F-4.6°C 74% 6.0 mph WSW9.7 kmh WSW 22.0 mph35.4 kmh 29.92 in1013.2 mb 0.00 in0.0 mm 0.00 in/hr0.0 mm/hr 0.45 in11.4 mm
10:50 PM 31.0°F-0.6°C 24.0°F-4.4°C 75% 9.0 mph NW14.5 kmh NW 13.0 mph20.9 kmh 29.92 in1013.2 mb 0.00 in0.0 mm 0.00 in/hr0.0 mm/hr 0.45 in11.4 mm
10:55 PM 30.8°F-0.7°C 23.8°F-4.6°C 75% 13.0 mph NW20.9 kmh NW 19.0 mph30.6 kmh 29.93 in1013.5 mb 0.00 in0.0 mm 0.00 in/hr0.0 mm/hr 0.45 in11.4 mm
11:00 PM 30.6°F-0.8°C 23.3°F-4.8°C 74% 10.0 mph W16.1 kmh W 17.0 mph27.4 kmh 29.93 in1013.5 mb 0.00 in0.0 mm 0.00 in/hr0.0 mm/hr 0.45 in11.4 mm
11:05 PM 30.4°F-0.9°C 22.5°F-5.3°C 72% 11.0 mph NW17.7 kmh NW 23.0 mph37.0 kmh 29.94 in1013.9 mb 0.00 in0.0 mm 0.00 in/hr0.0 mm/hr 0.45 in11.4 mm
11:10 PM 30.2°F-1.0°C 22.3°F-5.4°C 72% 7.0 mph NW11.3 kmh NW 8.0 mph12.9 kmh 29.94 in1013.9 mb 0.00 in0.0 mm 0.00 in/hr0.0 mm/hr 0.45 in11.4 mm
11:15 PM 30.1°F-1.1°C 22.5°F-5.3°C 73% 9.0 mph NNW14.5 kmh NNW 18.0 mph29.0 kmh 29.94 in1013.9 mb 0.00 in0.0 mm 0.00 in/hr0.0 mm/hr 0.45 in11.4 mm
11:20 PM 30.0°F-1.1°C 22.4°F-5.3°C 73% 3.0 mph NW4.8 kmh NW 9.0 mph14.5 kmh 29.95 in1014.2 mb 0.00 in0.0 mm 0.00 in/hr0.0 mm/hr 0.45 in11.4 mm
11:25 PM 29.8°F-1.2°C 22.2°F-5.4°C 73% 5.0 mph NW8.0 kmh NW 17.0 mph27.4 kmh 29.95 in1014.2 mb 0.00 in0.0 mm 0.00 in/hr0.0 mm/hr 0.45 in11.4 mm
11:30 PM 29.7°F-1.3°C 22.1°F-5.5°C 73% 12.0 mph NW19.3 kmh NW 12.0 mph19.3 kmh 29.95 in1014.2 mb 0.00 in0.0 mm 0.00 in/hr0.0 mm/hr 0.45 in11.4 mm
11:35 PM 29.6°F-1.3°C 22.0°F-5.6°C 73% 5.0 mph NNW8.0 kmh NNW 16.0 mph25.7 kmh 29.96 in1014.6 mb 0.00 in0.0 mm 0.00 in/hr0.0 mm/hr 0.45 in11.4 mm
11:40 PM 29.5°F-1.4°C 21.9°F-5.6°C 73% 18.0 mph NW29.0 kmh NW 18.0 mph29.0 kmh 29.96 in1014.6 mb 0.00 in0.0 mm 0.00 in/hr0.0 mm/hr 0.45 in11.4 mm
11:45 PM 29.5°F-1.4°C 21.9°F-5.6°C 73% 8.0 mph W12.9 kmh W 18.0 mph29.0 kmh 29.97 in1014.9 mb 0.00 in0.0 mm 0.00 in/hr0.0 mm/hr 0.45 in11.4 mm
11:50 PM 29.5°F-1.4°C 21.9°F-5.6°C 73% 5.0 mph NW8.0 kmh NW 8.0 mph12.9 kmh 29.97 in1014.9 mb 0.00 in0.0 mm 0.00 in/hr0.0 mm/hr 0.45 in11.4 mm
11:55 PM 29.4°F-1.4°C 21.5°F-5.8°C 72% 10.0 mph W16.1 kmh W 13.0 mph20.9 kmh 29.98 in1015.2 mb 0.00 in0.0 mm 0.00 in/hr0.0 mm/hr 0.45 in11.4 mm